Time;durP1;ratioP1;P1;durP2;ratioP2;P2;SDS_P1;SDS_P2;PMS_P1;PMS_P2;Temp;Humidity;BMP_temperature;BMP_pressure;BME280_temperature;BME280_humidity;BME280_pressure;Samples;Min_cycle;Max_cycle;Signal;HPM_P1;HPM_P2
2022/06/29 00:00:24;;;;;;;12.97;5.50;;;13.10;79.00;;;;;;5060909;28;20172;-78
2022/06/29 00:02:51;;;;;;;11.20;6.10;;;13.20;79.30;;;;;;5058536;28;20172;-80
2022/06/29 00:05:21;;;;;;;12.67;6.47;;;13.30;79.00;;;;;;5068929;28;20187;-77
2022/06/29 00:07:50;;;;;;;12.33;6.40;;;13.40;78.40;;;;;;5076098;28;20645;-77
2022/06/29 00:10:17;;;;;;;10.67;6.53;;;13.50;77.60;;;;;;5058313;28;20176;-77
2022/06/29 00:12:47;;;;;;;11.50;6.80;;;13.60;77.60;;;;;;5058683;28;20182;-77
2022/06/29 00:15:17;;;;;;;10.27;6.77;;;13.60;77.60;;;;;;5061821;28;20233;-76
2022/06/29 00:17:45;;;;;;;14.73;7.63;;;13.60;77.60;;;;;;5058552;28;20208;-77
2022/06/29 00:20:13;;;;;;;11.93;7.20;;;13.70;77.60;;;;;;5058370;28;20187;-75
2022/06/29 00:22:45;;;;;;;12.33;7.13;;;13.80;77.90;;;;;;5067460;28;20281;-76
2022/06/29 00:25:14;;;;;;;11.03;7.03;;;13.70;77.40;;;;;;5074865;28;20186;-77
2022/06/29 00:27:42;;;;;;;14.40;7.47;;;13.80;77.60;;;;;;5075340;28;20330;-76
2022/06/29 00:30:11;;;;;;;9.87;7.03;;;13.80;77.30;;;;;;5076893;28;20186;-77
2022/06/29 00:32:41;;;;;;;13.30;7.20;;;13.80;77.10;;;;;;5065188;28;20237;-76
2022/06/29 00:35:09;;;;;;;14.93;7.23;;;13.90;77.10;;;;;;5068092;28;20534;-79
2022/06/29 00:37:36;;;;;;;16.63;7.13;;;13.90;76.70;;;;;;5066210;28;20205;-75
2022/06/29 00:40:05;;;;;;;10.17;6.67;;;13.90;76.20;;;;;;5086469;28;20179;-75
2022/06/29 00:42:33;;;;;;;11.37;6.50;;;14.00;75.60;;;;;;5064934;28;20523;-77
2022/06/29 00:45:01;;;;;;;10.73;6.27;;;14.10;75.50;;;;;;5067353;28;20264;-76
2022/06/29 00:47:28;;;;;;;13.53;6.23;;;14.20;75.10;;;;;;5067449;28;20267;-81
2022/06/29 00:49:56;;;;;;;9.33;5.53;;;14.20;74.30;;;;;;5075385;28;20178;-77
2022/06/29 00:52:29;;;;;;;13.97;6.03;;;14.30;74.40;;;;;;5086562;28;20182;-75
2022/06/29 00:55:05;;;;;;;11.20;5.80;;;14.60;74.50;;;;;;5066225;28;20201;-77
2022/06/29 00:57:38;;;;;;;9.10;5.23;;;14.70;74.80;;;;;;5078280;28;20206;-77
2022/06/29 01:00:07;;;;;;;7.50;3.83;;;14.60;72.40;;;;;;5063550;28;20234;-75
2022/06/29 01:02:34;;;;;;;6.63;3.37;;;14.70;72.70;;;;;;5058536;28;20180;-76
2022/06/29 01:05:03;;;;;;;10.07;3.73;;;14.70;70.70;;;;;;5075625;28;20265;-76
2022/06/29 01:07:32;;;;;;;5.70;3.00;;;14.80;70.60;;;;;;5069979;28;20654;-75
2022/06/29 01:10:00;;;;;;;7.60;3.20;;;14.90;70.70;;;;;;5055035;28;20172;-75
2022/06/29 01:12:28;;;;;;;7.73;3.17;;;14.90;69.60;;;;;;5064532;28;20198;-76
2022/06/29 01:14:56;;;;;;;5.57;3.10;;;15.20;69.90;;;;;;5069372;28;20175;-75
2022/06/29 01:17:24;;;;;;;4.53;2.40;;;15.20;68.30;;;;;;5071728;28;20680;-76
2022/06/29 01:19:52;;;;;;;7.27;3.20;;;15.30;67.40;;;;;;5068089;28;20187;-75
2022/06/29 01:22:26;;;;;;;5.73;2.67;;;15.50;67.50;;;;;;5073689;28;20198;-79
2022/06/29 01:24:53;;;;;;;8.37;2.50;;;15.70;66.60;;;;;;5072824;28;20179;-79
2022/06/29 01:27:23;;;;;;;3.47;2.23;;;15.80;65.20;;;;;;5059349;28;20240;-81
2022/06/29 01:29:50;;;;;;;4.77;2.03;;;15.80;64.30;;;;;;5073728;28;20187;-80
2022/06/29 01:32:19;;;;;;;5.60;2.00;;;15.90;64.70;;;;;;5074189;28;20189;-78
2022/06/29 01:34:47;;;;;;;6.33;2.03;;;16.00;63.80;;;;;;5061814;28;20169;-77
2022/06/29 01:37:14;;;;;;;5.87;3.63;;;16.20;63.40;;;;;;5064979;28;20213;-75
2022/06/29 01:39:42;;;;;;;9.33;1.97;;;16.20;61.90;;;;;;5077158;28;20197;-75
2022/06/29 01:42:10;;;;;;;3.30;1.63;;;16.30;61.10;;;;;;5067800;28;20659;-80
2022/06/29 01:44:38;;;;;;;6.10;2.00;;;16.40;62.00;;;;;;5062645;28;20266;-78
2022/06/29 01:47:05;;;;;;;6.77;1.73;;;16.40;61.20;;;;;;5067512;28;20182;-80
2022/06/29 01:49:33;;;;;;;5.40;1.77;;;16.60;61.20;;;;;;5053718;28;20172;-79
2022/06/29 01:52:01;;;;;;;2.80;1.73;;;16.70;60.30;;;;;;5056257;28;20168;-80
2022/06/29 01:54:28;;;;;;;3.37;1.40;;;16.80;60.60;;;;;;5069383;28;20179;-82
2022/06/29 01:56:55;;;;;;;2.80;1.40;;;17.00;59.50;;;;;;5054692;28;20229;-77
2022/06/29 01:59:23;;;;;;;5.03;1.40;;;17.00;58.70;;;;;;5075209;28;20187;-75
2022/06/29 02:01:50;;;;;;;6.23;1.70;;;17.00;59.50;;;;;;5082714;28;20646;-80
2022/06/29 02:04:18;;;;;;;7.33;1.53;;;17.20;59.00;;;;;;5093946;28;20186;-77
2022/06/29 02:06:45;;;;;;;4.23;1.37;;;17.30;57.50;;;;;;5068700;28;20171;-77
2022/06/29 02:09:13;;;;;;;3.43;1.33;;;17.60;57.50;;;;;;5082532;28;20532;-74
2022/06/29 02:11:41;;;;;;;3.47;1.20;;;17.40;58.40;;;;;;5085808;28;20182;-79
2022/06/29 02:14:09;;;;;;;4.20;1.30;;;17.70;57.80;;;;;;5060495;28;20176;-75
2022/06/29 02:16:37;;;;;;;4.73;1.23;;;17.50;57.60;;;;;;5078532;28;20272;-76
2022/06/29 02:19:04;;;;;;;8.27;1.50;;;17.60;57.20;;;;;;5071496;28;20211;-76
2022/06/29 02:21:32;;;;;;;4.70;1.50;;;18.00;56.10;;;;;;5084500;28;20183;-77
2022/06/29 02:23:59;;;;;;;5.60;1.30;;;18.00;54.90;;;;;;5065250;28;20187;-77
2022/06/29 02:26:27;;;;;;;3.07;1.27;;;18.00;54.60;;;;;;5071919;28;20223;-75
2022/06/29 02:28:54;;;;;;;4.20;1.10;;;18.00;54.10;;;;;;5069789;28;20187;-72
2022/06/29 02:36:52;;;;;;;39.97;3.60;;;17.80;51.00;;;;;;5066781;28;20202;-72
2022/06/29 02:39:19;;;;;;;8.13;3.10;;;17.80;51.40;;;;;;5072139;28;20199;-73
2022/06/29 02:41:47;;;;;;;4.20;1.30;;;17.80;51.40;;;;;;5072140;28;20179;-73
2022/06/29 02:44:15;;;;;;;4.83;1.37;;;17.80;51.80;;;;;;5070976;28;20191;-80
2022/06/29 02:46:42;;;;;;;2.70;1.07;;;17.80;51.40;;;;;;5069608;28;20187;-74
2022/06/29 02:49:10;;;;;;;6.43;1.00;;;17.60;51.10;;;;;;5069586;28;20170;-73
2022/06/29 02:51:37;;;;;;;15.40;2.10;;;17.70;51.20;;;;;;5070194;28;20269;-73
2022/06/29 02:54:05;;;;;;;6.90;1.30;;;17.80;51.10;;;;;;5064510;28;20539;-73
2022/06/29 02:56:32;;;;;;;3.47;1.30;;;17.80;51.40;;;;;;5071066;28;20189;-75
2022/06/29 02:58:59;;;;;;;6.70;1.17;;;17.90;50.70;;;;;;5070987;28;20203;-77
2022/06/29 03:01:27;;;;;;;4.93;1.30;;;17.50;50.20;;;;;;5073437;28;20245;-74
2022/06/29 03:03:55;;;;;;;3.17;0.90;;;17.60;50.40;;;;;;5066983;28;20725;-73
2022/06/29 03:06:22;;;;;;;3.67;1.00;;;17.50;50.60;;;;;;5084327;28;20238;-74
2022/06/29 03:08:50;;;;;;;3.83;0.80;;;17.40;50.80;;;;;;5057347;28;20760;-73
2022/06/29 03:11:17;;;;;;;3.33;1.13;;;17.50;51.20;;;;;;5060312;28;20550;-74
2022/06/29 03:13:44;;;;;;;2.20;0.90;;;17.40;51.30;;;;;;5067605;28;20228;-73
2022/06/29 03:16:12;;;;;;;6.17;1.20;;;17.30;52.30;;;;;;5069547;28;20184;-74
2022/06/29 03:18:39;;;;;;;2.23;0.80;;;17.60;51.90;;;;;;5072867;28;20260;-73
2022/06/29 03:21:07;;;;;;;2.37;0.90;;;17.70;51.80;;;;;;5076498;28;20573;-72
2022/06/29 03:23:34;;;;;;;2.53;0.80;;;17.70;51.40;;;;;;5062784;28;20183;-73
2022/06/29 03:26:02;;;;;;;2.87;0.90;;;17.80;51.00;;;;;;5070668;28;20274;-80
2022/06/29 03:28:29;;;;;;;1.37;0.90;;;17.80;51.30;;;;;;5073428;28;20649;-75
2022/06/29 03:30:57;;;;;;;4.77;1.20;;;17.80;51.50;;;;;;5071799;28;20182;-72
2022/06/29 03:33:24;;;;;;;4.10;0.90;;;17.90;51.20;;;;;;5074340;28;20186;-74
2022/06/29 03:35:51;;;;;;;4.90;1.93;;;17.90;52.10;;;;;;5066434;28;20204;-73
2022/06/29 03:38:19;;;;;;;7.50;1.67;;;17.90;52.20;;;;;;5063927;28;20687;-73
2022/06/29 03:40:46;;;;;;;3.37;1.20;;;17.70;52.10;;;;;;5070707;28;20182;-72
2022/06/29 03:43:14;;;;;;;6.27;1.40;;;17.60;52.70;;;;;;5064236;28;20257;-73
2022/06/29 03:45:42;;;;;;;3.90;1.40;;;17.50;52.70;;;;;;5064947;28;20187;-72
2022/06/29 03:48:10;;;;;;;2.23;1.10;;;17.40;53.10;;;;;;5077290;28;20171;-73
2022/06/29 03:50:37;;;;;;;6.13;1.50;;;17.20;53.10;;;;;;5067422;28;20215;-73
2022/06/29 03:53:04;;;;;;;3.17;1.40;;;17.30;53.20;;;;;;5065825;28;20178;-74
2022/06/29 03:55:32;;;;;;;6.50;1.20;;;17.20;53.50;;;;;;5068065;28;20243;-73
2022/06/29 03:57:59;;;;;;;5.33;1.30;;;17.30;53.60;;;;;;5071773;28;20216;-76
2022/06/29 04:00:27;;;;;;;1.33;0.80;;;17.20;53.10;;;;;;5068547;28;20274;-74
2022/06/29 04:02:54;;;;;;;3.93;1.20;;;17.20;53.70;;;;;;5075621;28;20591;-72
2022/06/29 04:05:24;;;;;;;3.80;1.83;;;17.30;52.90;;;;;;5069632;28;20231;-73
2022/06/29 04:07:52;;;;;;;4.17;0.87;;;17.60;52.40;;;;;;5067182;28;20255;-75
2022/06/29 04:10:19;;;;;;;3.20;1.00;;;17.70;51.60;;;;;;5063496;28;20187;-73
2022/06/29 04:12:47;;;;;;;1.70;0.90;;;17.70;52.00;;;;;;5064072;28;20190;-76
2022/06/29 04:15:14;;;;;;;3.90;0.90;;;17.50;52.00;;;;;;5068155;28;20194;-74
2022/06/29 04:17:41;;;;;;;4.57;1.60;;;17.60;52.00;;;;;;5069851;28;20215;-76
2022/06/29 04:21:05;;;;;;;3.20;1.40;;;17.60;51.60;;;;;;5064628;28;20256;-76
2022/06/29 04:22:59;;;;;;;3.23;1.13;;;17.60;51.70;;;;;;5068067;28;20183;-77
2022/06/29 04:25:27;;;;;;;2.30;0.80;;;17.70;52.40;;;;;;5070945;28;20186;-73
2022/06/29 04:27:54;;;;;;;3.30;0.77;;;17.70;52.40;;;;;;5064306;28;20315;-77
2022/06/29 04:30:22;;;;;;;1.93;0.70;;;17.50;52.50;;;;;;5067137;28;20179;-73
2022/06/29 04:32:49;;;;;;;2.63;1.03;;;17.30;52.80;;;;;;5073716;28;20183;-77
2022/06/29 04:35:17;;;;;;;3.07;1.03;;;17.30;52.90;;;;;;5071972;28;20207;-76
2022/06/29 04:37:44;;;;;;;1.90;0.83;;;17.30;53.10;;;;;;5059699;28;20256;-73
2022/06/29 04:40:13;;;;;;;2.67;1.00;;;17.40;53.00;;;;;;5067618;28;20186;-74
2022/06/29 04:42:40;;;;;;;3.13;0.80;;;17.30;52.70;;;;;;5062969;28;20278;-74
2022/06/29 04:46:19;;;;;;;2.83;1.00;;;17.40;52.60;;;;;;5064968;28;20217;-74
2022/06/29 04:47:58;;;;;;;6.30;1.10;;;17.50;52.90;;;;;;5063068;28;20518;-74
2022/06/29 04:50:26;;;;;;;5.27;1.10;;;17.50;53.20;;;;;;5067798;28;20176;-75
2022/06/29 04:52:54;;;;;;;4.53;1.20;;;17.70;52.60;;;;;;5063021;28;20187;-74
2022/06/29 04:55:23;;;;;;;3.90;1.33;;;17.80;52.10;;;;;;5062502;28;20257;-74
2022/06/29 04:57:51;;;;;;;4.40;1.07;;;17.80;52.80;;;;;;5070549;28;20206;-74
2022/06/29 05:00:18;;;;;;;5.43;1.20;;;18.10;52.20;;;;;;5065192;28;20594;-75
2022/06/29 05:02:46;;;;;;;3.97;1.03;;;17.90;52.20;;;;;;5072431;28;20209;-74
2022/06/29 05:05:13;;;;;;;3.83;1.10;;;17.70;53.30;;;;;;5071062;28;20273;-74
2022/06/29 05:07:41;;;;;;;4.20;1.00;;;17.60;53.80;;;;;;5073985;28;20273;-73
2022/06/29 05:10:09;;;;;;;4.10;1.33;;;17.30;54.70;;;;;;5066202;28;20203;-74
2022/06/29 05:12:38;;;;;;;3.13;0.90;;;17.40;55.80;;;;;;5074346;28;20206;-74
2022/06/29 05:15:09;;;;;;;2.37;0.90;;;17.40;55.40;;;;;;5059339;28;20178;-74
2022/06/29 05:17:37;;;;;;;4.87;0.90;;;17.30;56.40;;;;;;5065914;28;20207;-73
2022/06/29 05:20:07;;;;;;;5.00;1.20;;;17.20;55.50;;;;;;5064856;28;20207;-74
2022/06/29 05:22:37;;;;;;;5.67;1.53;;;17.10;56.50;;;;;;5067024;28;20179;-73
2022/06/29 05:25:07;;;;;;;4.73;1.10;;;17.10;56.80;;;;;;5064965;28;20198;-73
2022/06/29 05:27:35;;;;;;;5.03;1.23;;;17.00;56.30;;;;;;5069381;28;20245;-73
2022/06/29 05:30:03;;;;;;;6.30;1.70;;;16.90;56.90;;;;;;5070722;28;20187;-73
2022/06/29 05:32:35;;;;;;;4.23;1.93;;;16.80;57.20;;;;;;5067589;28;20207;-73
2022/06/29 05:35:03;;;;;;;4.47;1.67;;;16.80;56.90;;;;;;5068797;28;20615;-73
2022/06/29 05:37:31;;;;;;;7.33;1.57;;;16.70;57.60;;;;;;5069976;28;20292;-73
2022/06/29 05:39:58;;;;;;;5.57;1.30;;;16.70;58.00;;;;;;5070249;28;20288;-74
2022/06/29 05:42:26;;;;;;;4.13;1.20;;;16.60;57.80;;;;;;5065994;28;20194;-73
2022/06/29 05:44:53;;;;;;;6.53;1.27;;;16.50;57.40;;;;;;5072024;28;20516;-74
2022/06/29 05:47:21;;;;;;;4.30;1.30;;;16.40;57.60;;;;;;5064992;28;20177;-73
2022/06/29 05:49:49;;;;;;;4.33;1.20;;;16.30;58.10;;;;;;5068719;28;20177;-74
2022/06/29 05:52:16;;;;;;;3.43;1.20;;;16.30;58.20;;;;;;5069440;28;20701;-74
2022/06/29 05:54:44;;;;;;;5.73;1.33;;;16.30;58.80;;;;;;5071273;28;20176;-73
2022/06/29 05:57:11;;;;;;;7.10;1.47;;;16.30;59.10;;;;;;5070802;28;20185;-74
2022/06/29 05:59:39;;;;;;;4.17;1.43;;;16.20;59.50;;;;;;5067514;28;20215;-73
2022/06/29 06:02:06;;;;;;;1.73;1.00;;;16.20;59.50;;;;;;5069545;28;20230;-73
2022/06/29 06:04:34;;;;;;;8.10;1.27;;;16.20;60.10;;;;;;5069888;28;20179;-74
2022/06/29 06:07:01;;;;;;;2.23;1.10;;;16.10;59.70;;;;;;5073524;28;20581;-76
2022/06/29 06:09:29;;;;;;;8.60;1.33;;;16.10;59.70;;;;;;5068150;28;20270;-73
2022/06/29 06:11:56;;;;;;;8.17;1.60;;;16.00;60.60;;;;;;5070246;28;20271;-76
2022/06/29 06:14:24;;;;;;;7.53;2.00;;;16.00;61.00;;;;;;5072945;28;20637;-74
2022/06/29 06:16:52;;;;;;;4.07;1.40;;;15.90;61.60;;;;;;5071722;28;20179;-74
2022/06/29 06:19:19;;;;;;;7.70;1.60;;;15.80;61.00;;;;;;5071938;28;20242;-74
2022/06/29 06:21:47;;;;;;;8.13;2.10;;;15.80;61.60;;;;;;5059130;28;20209;-74
2022/06/29 06:24:14;;;;;;;3.77;1.47;;;15.80;62.00;;;;;;5056373;28;20180;-74
2022/06/29 06:26:42;;;;;;;4.23;1.20;;;15.80;61.60;;;;;;5053210;28;20220;-73
2022/06/29 06:29:10;;;;;;;2.10;1.13;;;15.80;61.40;;;;;;5053544;28;20634;-74
2022/06/29 06:31:37;;;;;;;5.57;1.60;;;15.70;61.50;;;;;;5053513;28;20182;-74
2022/06/29 06:34:05;;;;;;;4.53;1.40;;;15.70;61.30;;;;;;5053358;28;20207;-74
2022/06/29 06:36:32;;;;;;;3.57;1.47;;;15.70;61.70;;;;;;5053326;28;20272;-74
2022/06/29 06:39:00;;;;;;;4.23;1.40;;;15.70;61.70;;;;;;5052827;28;20300;-74
2022/06/29 06:41:27;;;;;;;4.57;1.00;;;15.70;61.50;;;;;;5052028;28;20172;-74
2022/06/29 06:43:57;;;;;;;8.70;1.10;;;15.70;61.80;;;;;;5052886;28;20180;-74
2022/06/29 06:46:25;;;;;;;5.90;1.20;;;15.60;61.90;;;;;;5053059;28;20170;-74
2022/06/29 06:48:53;;;;;;;9.30;1.70;;;15.60;62.30;;;;;;5052885;28;20211;-74
2022/06/29 06:51:22;;;;;;;3.53;1.60;;;15.50;62.40;;;;;;5053085;28;20183;-74
2022/06/29 06:53:50;;;;;;;4.60;1.87;;;15.40;62.50;;;;;;5063269;28;20171;-75
2022/06/29 06:56:18;;;;;;;2.57;1.30;;;15.30;63.10;;;;;;5052930;28;20181;-73
2022/06/29 06:58:46;;;;;;;5.93;1.60;;;15.30;63.50;;;;;;5052888;28;20295;-73
2022/06/29 07:01:14;;;;;;;4.43;1.23;;;15.30;63.40;;;;;;5053020;28;20257;-74
2022/06/29 07:03:44;;;;;;;7.40;1.40;;;15.30;63.10;;;;;;5052793;28;20195;-74
2022/06/29 07:06:12;;;;;;;4.20;3.63;;;15.30;63.20;;;;;;5056863;28;20201;-74
2022/06/29 07:08:40;;;;;;;4.27;1.57;;;15.20;63.40;;;;;;5071610;28;20187;-73
2022/06/29 07:11:08;;;;;;;3.30;1.20;;;15.10;63.60;;;;;;5067175;28;20690;-73
2022/06/29 07:13:36;;;;;;;4.40;1.40;;;15.20;63.30;;;;;;5052747;28;20176;-73
2022/06/29 07:16:05;;;;;;;4.00;1.63;;;15.10;63.60;;;;;;5064339;28;20266;-75
2022/06/29 07:18:34;;;;;;;3.43;1.60;;;15.10;63.80;;;;;;5065019;28;20223;-74
2022/06/29 07:21:02;;;;;;;5.40;1.50;;;15.00;64.40;;;;;;5071344;28;20183;-74
2022/06/29 07:23:29;;;;;;;2.60;1.17;;;14.80;64.80;;;;;;5071521;28;20186;-73
2022/06/29 07:25:57;;;;;;;4.73;1.90;;;14.80;64.80;;;;;;5069905;28;20245;-73
2022/06/29 07:28:25;;;;;;;9.67;1.87;;;14.80;64.90;;;;;;5052906;28;20594;-74
2022/06/29 07:30:52;;;;;;;4.53;1.60;;;14.80;65.40;;;;;;5063968;28;20580;-75
2022/06/29 07:33:20;;;;;;;3.53;1.73;;;14.70;65.70;;;;;;5068091;28;20176;-76
2022/06/29 07:35:47;;;;;;;8.27;2.40;;;14.70;65.70;;;;;;5071303;28;20330;-76
2022/06/29 07:38:15;;;;;;;7.63;1.87;;;14.60;65.90;;;;;;5051802;28;20705;-75
2022/06/29 07:40:43;;;;;;;7.47;1.93;;;14.60;66.00;;;;;;5068770;28;20186;-75
2022/06/29 07:43:10;;;;;;;8.83;1.80;;;14.50;66.60;;;;;;5068931;28;20206;-76
2022/06/29 07:45:37;;;;;;;7.90;1.90;;;14.50;67.30;;;;;;5092167;28;20177;-76
2022/06/29 07:48:05;;;;;;;4.97;1.67;;;14.40;67.40;;;;;;5069479;28;20186;-75
2022/06/29 07:50:33;;;;;;;5.87;1.60;;;14.40;67.60;;;;;;5071780;28;20179;-76
2022/06/29 07:53:00;;;;;;;8.07;1.67;;;14.40;67.60;;;;;;5069327;28;20182;-75
2022/06/29 07:55:28;;;;;;;5.33;1.73;;;14.30;67.90;;;;;;5050465;28;20538;-77
2022/06/29 07:57:56;;;;;;;3.93;1.70;;;14.30;68.30;;;;;;5051959;28;20208;-74
2022/06/29 08:00:25;;;;;;;4.10;1.53;;;14.20;68.30;;;;;;5058686;28;20226;-76
2022/06/29 08:02:52;;;;;;;6.10;1.53;;;14.20;68.60;;;;;;5053610;28;20642;-75
2022/06/29 08:05:21;;;;;;;4.37;1.40;;;14.20;69.00;;;;;;5055890;28;20176;-75
2022/06/29 08:07:48;;;;;;;5.60;1.70;;;14.20;68.90;;;;;;5058826;28;20187;-74
2022/06/29 08:10:16;;;;;;;3.83;1.57;;;14.20;68.60;;;;;;5065914;28;20179;-73
2022/06/29 08:12:43;;;;;;;5.83;1.73;;;14.20;68.60;;;;;;5067689;28;20187;-74
2022/06/29 08:15:11;;;;;;;6.90;1.93;;;14.20;68.60;;;;;;5067769;28;20179;-75
2022/06/29 08:17:38;;;;;;;5.00;2.13;;;14.20;68.20;;;;;;5069710;28;20231;-76
2022/06/29 08:20:06;;;;;;;5.43;2.40;;;14.20;68.20;;;;;;5055061;28;20761;-74
2022/06/29 08:22:34;;;;;;;2.33;1.60;;;14.20;68.40;;;;;;5082664;28;20658;-73
2022/06/29 08:25:01;;;;;;;4.77;1.80;;;14.20;68.10;;;;;;5061482;28;20215;-73
2022/06/29 08:27:31;;;;;;;2.97;1.70;;;14.20;68.00;;;;;;5055115;28;20220;-73
2022/06/29 08:29:59;;;;;;;3.70;1.60;;;14.30;67.70;;;;;;5055281;28;20186;-73
2022/06/29 08:32:26;;;;;;;7.33;4.13;;;14.30;67.60;;;;;;5054964;28;20275;-73
2022/06/29 08:34:58;;;;;;;5.47;3.87;;;14.30;67.50;;;;;;5055378;28;20527;-74
2022/06/29 08:37:27;;;;;;;7.37;3.33;;;14.30;67.00;;;;;;5090221;28;20206;-73
2022/06/29 08:39:54;;;;;;;2.97;1.80;;;14.40;66.60;;;;;;5066391;28;20250;-73
2022/06/29 08:42:23;;;;;;;4.03;2.20;;;14.40;66.80;;;;;;5054943;28;20184;-74
2022/06/29 08:44:52;;;;;;;7.63;2.30;;;14.30;66.60;;;;;;5055122;28;20189;-73
2022/06/29 08:47:19;;;;;;;7.57;2.20;;;14.40;66.80;;;;;;5054874;28;20173;-74
2022/06/29 08:49:47;;;;;;;5.77;2.30;;;14.30;67.10;;;;;;5068046;28;20175;-73
2022/06/29 08:52:15;;;;;;;5.10;2.47;;;14.30;66.70;;;;;;5080650;28;20179;-73
2022/06/29 08:54:46;;;;;;;7.70;4.77;;;14.30;66.40;;;;;;5057477;28;20176;-72
2022/06/29 08:57:14;;;;;;;9.40;6.20;;;14.30;66.70;;;;;;5054665;28;20176;-72
2022/06/29 08:59:44;;;;;;;14.37;9.60;;;14.30;66.90;;;;;;5060521;28;20646;-73
2022/06/29 09:02:13;;;;;;;9.23;6.00;;;14.30;66.80;;;;;;5073292;28;20223;-74
2022/06/29 09:04:44;;;;;;;10.20;4.57;;;14.30;66.80;;;;;;5057273;28;20270;-73
2022/06/29 09:07:11;;;;;;;6.87;3.20;;;14.20;67.00;;;;;;5068917;28;20261;-72
2022/06/29 09:09:58;;;;;;;8.50;3.33;;;14.20;67.20;;;;;;5091621;28;20169;-73
2022/06/29 09:12:26;;;;;;;7.00;2.80;;;14.10;67.60;;;;;;5055060;28;20724;-73
2022/06/29 09:14:53;;;;;;;14.83;7.33;;;14.10;67.80;;;;;;5054135;28;20183;-73
2022/06/29 09:17:21;;;;;;;16.87;8.80;;;14.00;68.00;;;;;;5054664;28;20172;-72
2022/06/29 09:19:49;;;;;;;7.93;4.50;;;13.90;68.30;;;;;;5060309;28;20182;-73
2022/06/29 09:22:17;;;;;;;10.27;3.80;;;13.90;68.30;;;;;;5066788;28;20185;-72
2022/06/29 09:24:44;;;;;;;14.30;7.57;;;13.90;68.50;;;;;;5056372;28;20195;-74
2022/06/29 09:27:13;;;;;;;17.60;8.20;;;13.90;68.80;;;;;;5054752;28;20230;-73
2022/06/29 09:29:42;;;;;;;9.10;5.23;;;13.80;68.80;;;;;;5057383;28;20194;-74
2022/06/29 09:32:17;;;;;;;10.80;4.50;;;13.90;68.50;;;;;;5074184;28;20242;-74
2022/06/29 09:34:47;;;;;;;6.70;3.53;;;13.80;68.90;;;;;;5069080;28;20649;-74
2022/06/29 09:37:17;;;;;;;4.97;2.30;;;13.90;68.30;;;;;;5065797;28;20187;-75
2022/06/29 09:39:50;;;;;;;6.13;2.33;;;13.90;68.00;;;;;;5053476;28;20233;-74
2022/06/29 09:42:20;;;;;;;6.83;2.53;;;13.80;68.40;;;;;;5055806;28;20267;-74
2022/06/29 09:44:48;;;;;;;8.37;2.57;;;13.90;68.50;;;;;;5054532;28;20195;-74
2022/06/29 09:47:19;;;;;;;5.47;2.40;;;13.80;68.20;;;;;;5056806;28;20198;-74
2022/06/29 09:49:53;;;;;;;4.93;2.40;;;13.90;68.40;;;;;;5055631;28;20184;-74
2022/06/29 09:52:22;;;;;;;7.17;2.90;;;13.80;68.40;;;;;;5062143;28;20202;-74
2022/06/29 09:54:57;;;;;;;10.53;2.73;;;13.80;68.70;;;;;;5063378;28;20172;-74
2022/06/29 09:57:29;;;;;;;7.07;2.43;;;13.70;69.00;;;;;;5069922;28;20202;-76
2022/06/29 10:02:56;;;;;;;5.93;2.33;;;13.50;69.90;;;;;;5065034;28;20182;-74
2022/06/29 10:05:54;;;;;;;7.90;2.80;;;13.40;70.70;;;;;;5068494;28;20175;-75
2022/06/29 10:08:12;;;;;;;4.00;2.40;;;13.30;71.10;;;;;;5074447;28;20238;-74
2022/06/29 10:10:41;;;;;;;5.50;2.33;;;13.20;71.30;;;;;;5053425;28;20187;-74
2022/06/29 10:16:03;;;;;;;9.30;2.97;;;13.20;72.00;;;;;;5066878;28;20223;-74
2022/06/29 10:18:54;;;;;;;6.53;2.40;;;13.10;72.20;;;;;;5080322;28;20207;-75
2022/06/29 10:21:30;;;;;;;4.53;2.67;;;13.00;72.60;;;;;;5061278;28;20617;-73
2022/06/29 10:24:02;;;;;;;3.57;2.33;;;13.00;72.80;;;;;;5074173;28;20214;-74
2022/06/29 10:26:34;;;;;;;4.37;2.50;;;13.00;73.20;;;;;;5062471;28;20240;-74
2022/06/29 10:29:07;;;;;;;2.97;2.40;;;13.00;73.60;;;;;;5055751;28;20290;-74
2022/06/29 10:35:05;;;;;;;5.27;2.90;;;12.90;73.50;;;;;;5068266;28;20265;-74
2022/06/29 10:37:25;;;;;;;6.93;2.70;;;12.90;73.40;;;;;;5064693;28;20420;-74
2022/06/29 10:39:59;;;;;;;6.70;3.10;;;12.90;73.40;;;;;;5085294;28;20196;-75
2022/06/29 10:45:24;;;;;;;5.07;2.83;;;12.90;73.70;;;;;;5063164;28;20330;-75
2022/06/29 10:47:55;;;;;;;3.93;3.00;;;12.90;74.00;;;;;;5073439;28;20182;-74
2022/06/29 10:50:26;;;;;;;4.37;3.50;;;12.90;74.10;;;;;;5063740;28;20189;-74
2022/06/29 10:52:59;;;;;;;6.20;3.50;;;12.90;74.20;;;;;;5064973;28;20190;-76
2022/06/29 10:55:30;;;;;;;5.43;3.33;;;12.90;74.30;;;;;;5080611;28;20183;-76
2022/06/29 10:57:59;;;;;;;4.23;3.13;;;12.80;74.60;;;;;;5061277;28;20680;-76
2022/06/29 11:00:32;;;;;;;6.40;3.70;;;12.80;74.80;;;;;;5052755;28;20179;-76
2022/06/29 11:03:14;;;;;;;5.97;3.03;;;12.80;74.70;;;;;;5068963;28;20187;-76
2022/06/29 11:14:06;;;;;;;7.20;3.50;;;12.80;74.20;;;;;;5069386;28;20682;-77
2022/06/29 11:16:38;;;;;;;5.10;3.07;;;12.90;73.50;;;;;;5055476;28;20171;-76
2022/06/29 11:19:06;;;;;;;5.83;3.17;;;12.90;73.30;;;;;;5058006;28;20199;-76
2022/06/29 11:21:33;;;;;;;8.63;3.43;;;13.00;73.10;;;;;;5083184;28;20181;-76
2022/06/29 11:24:05;;;;;;;3.97;2.67;;;13.00;72.90;;;;;;5078573;28;20241;-77
2022/06/29 11:26:34;;;;;;;5.63;2.83;;;13.00;73.10;;;;;;5069581;28;20226;-75
2022/06/29 11:29:03;;;;;;;7.47;3.37;;;13.00;72.70;;;;;;5068211;28;20266;-77
2022/06/29 11:31:30;;;;;;;3.63;2.63;;;13.00;72.80;;;;;;5061127;28;20193;-75
2022/06/29 11:33:58;;;;;;;4.13;2.63;;;13.00;72.90;;;;;;5064346;28;20186;-77
2022/06/29 11:36:29;;;;;;;5.67;2.90;;;13.00;72.90;;;;;;5057390;28;20631;-77
2022/06/29 11:39:16;;;;;;;5.87;2.67;;;12.90;73.00;;;;;;5061961;28;20203;-75
2022/06/29 11:44:37;;;;;;;7.27;2.87;;;12.90;73.20;;;;;;5066656;28;20329;-75
2022/06/29 11:47:10;;;;;;;6.27;2.90;;;12.90;73.50;;;;;;5065737;28;20186;-77
2022/06/29 11:49:42;;;;;;;5.13;3.13;;;12.80;73.80;;;;;;5057812;28;20248;-75
2022/06/29 11:52:13;;;;;;;5.83;2.87;;;12.80;74.00;;;;;;5052633;28;20171;-76
2022/06/29 11:54:44;;;;;;;4.00;2.90;;;12.80;74.50;;;;;;5066557;28;20195;-75
2022/06/29 11:57:15;;;;;;;6.00;3.20;;;12.80;74.90;;;;;;5069571;28;20190;-77
2022/06/29 11:59:44;;;;;;;6.07;3.27;;;12.80;74.90;;;;;;5068205;28;20193;-74
2022/06/29 12:02:13;;;;;;;5.13;3.03;;;12.80;75.20;;;;;;5062639;28;20180;-75
2022/06/29 12:04:43;;;;;;;7.87;3.70;;;12.80;75.40;;;;;;5076330;28;20186;-74
2022/06/29 12:07:13;;;;;;;5.80;2.70;;;12.70;75.50;;;;;;5082347;28;20175;-75
2022/06/29 12:09:41;;;;;;;6.20;3.20;;;12.70;75.50;;;;;;5057204;28;20180;-75
2022/06/29 12:12:11;;;;;;;8.27;3.30;;;12.70;75.80;;;;;;5056518;28;20186;-73
2022/06/29 12:14:40;;;;;;;5.87;3.50;;;12.70;76.00;;;;;;5066392;28;20711;-74
2022/06/29 12:17:13;;;;;;;6.83;3.87;;;12.70;76.20;;;;;;5054228;28;20187;-77
2022/06/29 12:19:40;;;;;;;6.57;3.30;;;12.60;76.20;;;;;;5051712;28;20242;-75
2022/06/29 12:22:08;;;;;;;6.80;4.00;;;12.60;76.40;;;;;;5050751;28;20219;-76
2022/06/29 12:24:36;;;;;;;8.87;3.80;;;12.50;76.20;;;;;;5060831;28;20642;-75
2022/06/29 12:27:04;;;;;;;7.40;3.90;;;12.50;76.50;;;;;;5051513;28;20269;-76
2022/06/29 12:29:31;;;;;;;7.93;4.10;;;12.50;76.70;;;;;;5051953;28;20175;-74
2022/06/29 12:31:59;;;;;;;7.73;4.03;;;12.40;76.50;;;;;;5065750;28;20180;-75
2022/06/29 12:34:26;;;;;;;8.80;4.13;;;12.40;76.80;;;;;;5061709;28;20694;-74
2022/06/29 12:36:54;;;;;;;9.13;3.97;;;12.50;77.10;;;;;;5067733;28;20186;-75
2022/06/29 12:39:22;;;;;;;11.33;4.00;;;12.40;77.30;;;;;;5051841;28;20223;-74
2022/06/29 12:41:49;;;;;;;8.40;4.07;;;12.40;77.30;;;;;;5051394;28;20183;-75
2022/06/29 12:44:17;;;;;;;8.23;4.23;;;12.40;77.20;;;;;;5056016;28;20175;-74
2022/06/29 12:46:44;;;;;;;9.30;4.57;;;12.30;77.40;;;;;;5061223;28;20258;-74
2022/06/29 12:49:11;;;;;;;6.27;3.87;;;12.30;77.60;;;;;;5065620;28;20195;-76
2022/06/29 12:51:41;;;;;;;6.30;3.50;;;12.30;77.60;;;;;;5070451;28;20263;-74
2022/06/29 12:54:08;;;;;;;5.10;3.90;;;12.20;77.60;;;;;;5062113;28;20279;-74
2022/06/29 12:56:36;;;;;;;5.83;4.07;;;12.20;77.90;;;;;;5068407;28;20266;-74
2022/06/29 12:59:03;;;;;;;8.10;3.50;;;12.20;78.00;;;;;;5054464;28;20290;-74
2022/06/29 13:01:31;;;;;;;7.53;3.63;;;12.20;77.90;;;;;;5056728;28;20185;-74
2022/06/29 13:04:02;;;;;;;5.80;3.87;;;12.10;78.00;;;;;;5054670;28;20224;-74
2022/06/29 13:06:29;;;;;;;8.13;3.57;;;12.10;78.10;;;;;;5068264;28;20179;-75
2022/06/29 13:08:57;;;;;;;8.07;3.97;;;12.00;78.20;;;;;;5054465;28;20271;-74
2022/06/29 13:11:26;;;;;;;10.67;4.07;;;12.00;78.20;;;;;;5061647;28;20196;-74
2022/06/29 13:13:53;;;;;;;5.00;3.63;;;12.00;78.00;;;;;;5054421;28;20179;-74
2022/06/29 13:16:21;;;;;;;7.80;4.37;;;12.00;78.00;;;;;;5054201;28;20561;-74
2022/06/29 13:18:48;;;;;;;7.53;3.80;;;12.00;78.20;;;;;;5057939;28;20214;-74
2022/06/29 13:21:16;;;;;;;7.80;3.57;;;12.00;78.30;;;;;;5069981;28;20629;-75